Time;durP1;ratioP1;P1;durP2;ratioP2;P2;SDS_P1;SDS_P2;PMS_P1;PMS_P2;Temp;Humidity;BMP_temperature;BMP_pressure;BME280_temperature;BME280_humidity;BME280_pressure;Samples;Min_cycle;Max_cycle;Signal;HPM_P1;HPM_P2
2023/01/11 00:02:02;;;;;;;4.88;3.88;;;-4.80;57.70;;;;;;5032852;28;20048;-49
2023/01/11 00:04:29;;;;;;;6.05;4.20;;;-4.80;57.70;;;;;;5033713;28;20514;-50
2023/01/11 00:06:56;;;;;;;5.32;3.90;;;-4.90;57.80;;;;;;5034221;28;20029;-52
2023/01/11 00:09:21;;;;;;;6.40;4.53;;;-4.90;58.00;;;;;;5034859;28;20158;-56
2023/01/11 00:11:47;;;;;;;7.63;4.65;;;-4.90;58.10;;;;;;5027659;28;20532;-57
2023/01/11 00:14:14;;;;;;;6.00;4.35;;;-5.00;58.20;;;;;;5037682;28;20031;-62
2023/01/11 00:16:39;;;;;;;6.88;4.82;;;-5.00;58.70;;;;;;5030028;28;20025;-63
2023/01/11 00:19:05;;;;;;;6.65;4.65;;;-5.10;58.60;;;;;;5032869;28;20033;-56
2023/01/11 00:21:31;;;;;;;7.00;4.35;;;-5.10;59.10;;;;;;5036618;28;20124;-56
2023/01/11 00:23:57;;;;;;;5.78;4.30;;;-5.10;59.10;;;;;;5036830;28;20171;-56
2023/01/11 00:26:22;;;;;;;6.03;4.50;;;-5.20;59.00;;;;;;5033204;28;20064;-50
2023/01/11 00:28:48;;;;;;;6.10;4.45;;;-5.20;59.10;;;;;;5026649;28;20552;-61
2023/01/11 00:31:15;;;;;;;6.85;4.63;;;-5.20;59.10;;;;;;5033028;28;20033;-62
2023/01/11 00:33:40;;;;;;;5.07;4.00;;;-5.20;59.20;;;;;;5028947;28;20446;-62
2023/01/11 00:36:07;;;;;;;4.70;3.83;;;-5.20;59.40;;;;;;5031057;28;20043;-62
2023/01/11 00:49:41;;;;;;;6.53;4.45;;;-5.00;59.30;;;;;;5032773;28;20140;-57
2023/01/11 00:52:10;;;;;;;4.43;4.03;;;-5.00;59.30;;;;;;5033237;28;20060;-56
2023/01/11 00:54:37;;;;;;;4.22;3.70;;;-5.00;59.30;;;;;;5032090;28;20029;-57
2023/01/11 00:57:05;;;;;;;4.30;3.90;;;-5.00;59.40;;;;;;5029982;28;20025;-56
2023/01/11 00:59:30;;;;;;;4.95;3.95;;;-5.00;59.40;;;;;;5035399;28;20025;-58
2023/01/11 01:01:56;;;;;;;4.45;4.03;;;-4.90;59.40;;;;;;5027223;28;20045;-57
2023/01/11 01:04:22;;;;;;;6.35;4.15;;;-4.90;59.20;;;;;;5028766;28;20238;-56
2023/01/11 01:06:47;;;;;;;6.78;4.30;;;-4.80;59.10;;;;;;5038881;28;20087;-56
2023/01/11 01:09:13;;;;;;;8.10;4.85;;;-4.80;59.10;;;;;;5032517;28;20029;-57
2023/01/11 01:11:38;;;;;;;6.03;4.13;;;-4.90;59.30;;;;;;5030144;28;20037;-56
2023/01/11 01:16:48;;;;;;;6.65;4.78;;;-4.90;59.40;;;;;;5028686;28;20076;-56
2023/01/11 01:19:14;;;;;;;5.03;4.40;;;-4.90;59.30;;;;;;5033741;28;20033;-56
2023/01/11 01:21:40;;;;;;;6.32;4.65;;;-5.00;59.10;;;;;;5038335;28;20036;-58
2023/01/11 01:24:06;;;;;;;6.90;4.30;;;-5.00;59.30;;;;;;5040859;28;20029;-56
2023/01/11 01:26:31;;;;;;;5.78;4.63;;;-5.10;59.50;;;;;;5032702;28;20092;-56
2023/01/11 01:28:57;;;;;;;11.48;5.03;;;-5.00;59.50;;;;;;5033250;28;20025;-57
2023/01/11 01:31:23;;;;;;;6.78;5.00;;;-5.00;59.40;;;;;;5025588;28;20033;-57
2023/01/11 01:33:48;;;;;;;5.88;4.85;;;-5.10;59.30;;;;;;5018787;28;20037;-56
2023/01/11 01:36:14;;;;;;;6.20;4.75;;;-5.10;59.40;;;;;;5033016;28;20373;-58
2023/01/11 01:38:39;;;;;;;5.95;4.30;;;-5.00;59.40;;;;;;5030809;28;20034;-58
2023/01/11 01:41:05;;;;;;;6.57;4.53;;;-5.00;59.40;;;;;;5036342;28;20069;-58
2023/01/11 01:43:50;;;;;;;5.15;4.35;;;-5.00;59.40;;;;;;5035072;28;20033;-57
2023/01/11 01:46:17;;;;;;;6.35;4.22;;;-4.90;59.30;;;;;;5031901;28;20041;-56
2023/01/11 01:49:15;;;;;;;6.65;4.75;;;-4.90;59.00;;;;;;5028096;28;20098;-58
2023/01/11 01:51:47;;;;;;;7.05;4.72;;;-4.90;58.90;;;;;;5034332;28;20049;-56
2023/01/11 01:54:18;;;;;;;7.82;5.32;;;-4.80;59.00;;;;;;5030716;28;20037;-57
2023/01/11 01:56:49;;;;;;;6.25;4.85;;;-4.80;59.00;;;;;;5033971;28;20030;-57
2023/01/11 01:59:17;;;;;;;6.47;4.72;;;-4.70;59.10;;;;;;5032235;28;20096;-49
2023/01/11 02:01:47;;;;;;;5.55;4.65;;;-4.70;59.10;;;;;;5030071;28;20052;-48
2023/01/11 02:04:29;;;;;;;6.97;4.85;;;-4.60;59.00;;;;;;5032003;28;20032;-50
2023/01/11 02:07:00;;;;;;;5.82;4.72;;;-4.60;58.90;;;;;;5020995;28;20126;-50
2023/01/11 02:09:36;;;;;;;6.85;4.85;;;-4.60;58.90;;;;;;5033857;28;20030;-52
2023/01/11 02:12:02;;;;;;;6.97;5.03;;;-4.60;58.90;;;;;;5029372;28;20075;-50
2023/01/11 02:14:30;;;;;;;6.60;5.22;;;-4.60;58.80;;;;;;5030963;28;20083;-57
2023/01/11 02:16:56;;;;;;;6.03;5.13;;;-4.60;59.00;;;;;;5029360;28;20032;-57
2023/01/11 02:19:24;;;;;;;6.15;4.57;;;-4.60;59.20;;;;;;5026660;28;20108;-60
2023/01/11 02:22:13;;;;;;;6.30;5.07;;;-4.70;59.30;;;;;;5033543;28;20029;-62
2023/01/11 02:24:40;;;;;;;9.63;5.30;;;-4.70;59.40;;;;;;5035719;28;20041;-59
2023/01/11 02:27:24;;;;;;;7.97;5.60;;;-4.80;59.50;;;;;;5033478;28;20029;-63
2023/01/11 02:30:12;;;;;;;6.30;4.90;;;-4.80;60.00;;;;;;5023089;28;20041;-57
2023/01/11 02:32:55;;;;;;;9.70;5.53;;;-4.90;59.50;;;;;;5034393;28;20033;-56
2023/01/11 02:35:42;;;;;;;8.80;5.43;;;-5.00;59.80;;;;;;5039875;28;20037;-51
2023/01/11 02:38:28;;;;;;;7.95;5.68;;;-5.10;60.10;;;;;;5037240;28;20021;-52
2023/01/11 02:41:19;;;;;;;7.40;5.82;;;-5.10;60.40;;;;;;5031770;28;20041;-57
2023/01/11 02:47:05;;;;;;;5.35;4.85;;;-5.30;61.10;;;;;;5024276;28;20088;-54
2023/01/11 02:49:45;;;;;;;7.10;5.20;;;-5.30;61.40;;;;;;5035398;28;20029;-58
2023/01/11 02:52:21;;;;;;;7.20;5.25;;;-5.40;61.70;;;;;;5026365;28;20065;-58
2023/01/11 02:54:54;;;;;;;8.30;5.57;;;-5.40;61.90;;;;;;5026848;28;20057;-48
2023/01/11 02:57:21;;;;;;;8.18;5.75;;;-5.50;62.20;;;;;;5035117;28;20036;-51
2023/01/11 02:59:48;;;;;;;7.70;5.68;;;-5.50;62.70;;;;;;5029994;28;20467;-57
2023/01/11 03:02:15;;;;;;;2.78;2.67;;;-5.50;62.90;;;;;;5030561;28;20050;-58
2023/01/11 03:04:41;;;;;;;7.05;5.10;;;-5.50;63.00;;;;;;5023809;28;20384;-47
2023/01/11 03:07:28;;;;;;;7.57;5.38;;;-5.50;63.30;;;;;;5026513;28;20029;-48
2023/01/11 03:10:00;;;;;;;8.80;5.82;;;-5.50;63.70;;;;;;5028864;28;20500;-57
2023/01/11 03:12:55;;;;;;;6.53;5.15;;;-5.60;63.80;;;;;;5029468;28;20037;-56
2023/01/11 03:15:59;;;;;;;9.00;5.63;;;-5.70;64.00;;;;;;5030890;28;20064;-54
2023/01/11 03:18:30;;;;;;;8.90;6.28;;;-5.70;64.60;;;;;;5024308;28;20049;-58
2023/01/11 03:21:07;;;;;;;9.35;6.20;;;-5.70;64.40;;;;;;5027547;28;20060;-55
2023/01/11 03:23:50;;;;;;;7.05;5.53;;;-5.70;64.50;;;;;;5026700;28;20450;-55
2023/01/11 03:26:24;;;;;;;9.07;6.18;;;-5.80;64.20;;;;;;5036229;28;20149;-56
2023/01/11 03:29:21;;;;;;;7.97;5.97;;;-5.80;64.30;;;;;;5032218;28;20108;-56
2023/01/11 03:32:02;;;;;;;2.90;2.78;;;-5.80;64.30;;;;;;5032036;28;20128;-55
2023/01/11 03:34:32;;;;;;;9.20;6.03;;;-5.80;64.40;;;;;;5022670;28;20021;-62
2023/01/11 03:37:05;;;;;;;6.38;5.22;;;-5.80;64.50;;;;;;5038452;28;20044;-62
2023/01/11 03:39:51;;;;;;;7.20;5.60;;;-5.80;64.40;;;;;;5037448;28;20031;-62
2023/01/11 03:42:20;;;;;;;7.28;5.07;;;-5.70;64.40;;;;;;5037668;28;20040;-64
2023/01/11 03:44:48;;;;;;;7.40;5.80;;;-5.70;64.60;;;;;;5038862;28;20033;-61
2023/01/11 03:47:16;;;;;;;8.93;6.03;;;-5.70;64.50;;;;;;5039503;28;20064;-61
2023/01/11 03:49:52;;;;;;;8.30;6.18;;;-5.80;64.50;;;;;;5041554;28;20113;-50
2023/01/11 03:52:21;;;;;;;9.00;6.55;;;-5.80;64.40;;;;;;5037344;28;20040;-49
2023/01/11 03:54:48;;;;;;;7.63;5.57;;;-5.90;64.60;;;;;;5027973;28;20033;-54
2023/01/11 03:57:23;;;;;;;9.13;5.85;;;-5.90;64.70;;;;;;5029690;28;20106;-50
2023/01/11 03:59:49;;;;;;;7.07;5.40;;;-6.00;64.60;;;;;;5036979;28;20041;-57
2023/01/11 04:02:15;;;;;;;9.10;5.88;;;-6.00;64.40;;;;;;5029828;28;20098;-58
2023/01/11 04:04:41;;;;;;;7.43;5.93;;;-6.00;64.60;;;;;;5055630;28;20042;-48
2023/01/11 04:07:07;;;;;;;8.10;5.82;;;-6.00;64.70;;;;;;5032872;28;20033;-52
2023/01/11 04:09:32;;;;;;;7.95;5.15;;;-6.10;64.80;;;;;;5035881;28;20041;-54
2023/01/11 04:11:58;;;;;;;7.38;5.22;;;-6.10;65.00;;;;;;5040912;28;20040;-53
2023/01/11 04:14:23;;;;;;;6.43;5.25;;;-6.10;65.00;;;;;;5040849;28;20482;-57
2023/01/11 04:16:49;;;;;;;8.98;6.03;;;-6.10;65.00;;;;;;5033790;28;20084;-56
2023/01/11 04:19:15;;;;;;;3.08;2.95;;;-6.10;64.90;;;;;;5029703;28;20387;-57
2023/01/11 04:21:40;;;;;;;5.20;4.65;;;-6.10;65.00;;;;;;5030812;28;20049;-56
2023/01/11 04:24:06;;;;;;;7.93;5.70;;;-6.10;65.10;;;;;;5034262;28;20414;-57
2023/01/11 04:26:32;;;;;;;7.00;5.35;;;-6.00;65.20;;;;;;5032304;28;20057;-56
2023/01/11 04:28:57;;;;;;;9.50;5.40;;;-6.10;65.10;;;;;;5035573;28;20034;-52
2023/01/11 04:31:23;;;;;;;6.10;5.13;;;-6.00;65.30;;;;;;5041020;28;20037;-52
2023/01/11 04:33:49;;;;;;;8.80;5.78;;;-6.00;65.30;;;;;;5038000;28;20025;-63
2023/01/11 04:36:14;;;;;;;6.68;5.40;;;-6.00;65.30;;;;;;5032009;28;20385;-62
2023/01/11 04:38:40;;;;;;;6.50;5.15;;;-6.00;65.40;;;;;;5033030;28;20391;-64
2023/01/11 04:43:53;;;;;;;7.18;5.50;;;-6.10;65.00;;;;;;5025782;28;20048;-63
2023/01/11 04:46:18;;;;;;;6.97;5.50;;;-6.10;64.80;;;;;;5032771;28;20044;-59
2023/01/11 04:48:44;;;;;;;8.45;5.40;;;-6.10;64.60;;;;;;5027877;28;20038;-55
2023/01/11 04:51:10;;;;;;;6.63;5.18;;;-6.10;64.60;;;;;;5036561;28;20029;-52
2023/01/11 04:53:36;;;;;;;11.65;5.75;;;-6.00;64.60;;;;;;5033103;28;20029;-57
2023/01/11 04:56:03;;;;;;;5.88;5.13;;;-6.00;64.40;;;;;;5024893;28;20448;-57
2023/01/11 04:58:30;;;;;;;6.82;5.30;;;-5.90;64.30;;;;;;5036421;28;20100;-64
2023/01/11 05:00:56;;;;;;;6.78;5.28;;;-5.80;64.10;;;;;;5031341;28;20087;-61
2023/01/11 05:03:22;;;;;;;9.68;5.90;;;-5.80;63.80;;;;;;5038691;28;20167;-61
2023/01/11 05:05:58;;;;;;;6.22;5.18;;;-5.70;63.50;;;;;;5035487;28;20056;-61
2023/01/11 05:08:26;;;;;;;6.47;4.90;;;-5.70;63.30;;;;;;5029979;28;20079;-62
2023/01/11 05:10:53;;;;;;;6.63;5.28;;;-5.70;63.20;;;;;;5032065;28;20034;-60
2023/01/11 05:13:18;;;;;;;8.77;5.90;;;-5.70;63.20;;;;;;5030113;28;20033;-60
2023/01/11 05:15:44;;;;;;;5.82;4.80;;;-5.60;62.90;;;;;;5045515;28;20035;-51
2023/01/11 05:18:10;;;;;;;8.20;5.93;;;-5.60;63.00;;;;;;5031873;28;20431;-48
2023/01/11 05:20:35;;;;;;;9.20;5.50;;;-5.50;63.00;;;;;;5026940;28;20143;-55
2023/01/11 05:23:01;;;;;;;7.15;5.50;;;-5.40;62.60;;;;;;5041926;28;20384;-57
2023/01/11 05:25:26;;;;;;;9.77;6.13;;;-5.40;62.60;;;;;;5025108;28;20369;-55
2023/01/11 05:27:52;;;;;;;6.88;5.40;;;-5.40;62.50;;;;;;5029490;28;20418;-56
2023/01/11 05:30:18;;;;;;;8.48;4.88;;;-5.40;62.90;;;;;;5028562;28;20456;-53
2023/01/11 05:32:43;;;;;;;7.70;6.00;;;-5.40;62.20;;;;;;5023494;28;20285;-55
2023/01/11 05:35:10;;;;;;;9.38;4.78;;;-5.50;62.10;;;;;;5031639;28;20418;-55
2023/01/11 05:37:37;;;;;;;7.68;5.93;;;-5.70;62.10;;;;;;5041608;28;20030;-55
2023/01/11 05:40:06;;;;;;;8.98;5.80;;;-5.70;62.20;;;;;;5032628;28;20080;-57
2023/01/11 05:42:32;;;;;;;7.50;5.80;;;-5.90;62.40;;;;;;5020214;28;20379;-56
2023/01/11 05:47:41;;;;;;;8.75;5.88;;;-6.10;62.90;;;;;;5018674;28;20490;-56
2023/01/11 05:50:08;;;;;;;9.43;6.05;;;-6.10;63.20;;;;;;5025236;28;20026;-54
2023/01/11 05:52:33;;;;;;;8.07;5.30;;;-6.20;63.30;;;;;;5026073;28;20072;-55
2023/01/11 05:54:59;;;;;;;9.27;5.78;;;-6.20;63.30;;;;;;5029836;28;20079;-55
2023/01/11 05:57:25;;;;;;;7.63;5.60;;;-6.10;63.20;;;;;;5029112;28;20183;-53
2023/01/11 05:59:50;;;;;;;7.90;5.80;;;-6.10;63.20;;;;;;5028382;28;20055;-56
2023/01/11 06:02:16;;;;;;;6.78;5.10;;;-6.10;63.00;;;;;;5030892;28;20135;-53
2023/01/11 06:04:41;;;;;;;6.13;5.20;;;-6.10;62.90;;;;;;5028711;28;20030;-54
2023/01/11 06:07:08;;;;;;;7.72;5.95;;;-6.10;62.80;;;;;;5027788;28;20029;-54
2023/01/11 06:09:34;;;;;;;6.03;5.03;;;-6.10;62.80;;;;;;5034638;28;20040;-52
2023/01/11 06:12:00;;;;;;;7.90;5.80;;;-6.10;63.00;;;;;;5022487;28;20037;-54
2023/01/11 06:14:26;;;;;;;6.93;5.50;;;-6.10;63.10;;;;;;5036045;28;20475;-55
2023/01/11 06:16:51;;;;;;;3.15;2.92;;;-6.10;63.10;;;;;;5026355;28;20079;-55
2023/01/11 06:19:17;;;;;;;6.97;5.25;;;-6.10;63.00;;;;;;5032531;28;20495;-55
2023/01/11 06:21:43;;;;;;;8.43;6.28;;;-6.10;63.20;;;;;;5025397;28;20127;-54
2023/01/11 06:24:08;;;;;;;7.70;5.88;;;-6.10;63.20;;;;;;5022555;28;20029;-52
2023/01/11 06:26:34;;;;;;;8.48;5.90;;;-6.10;63.10;;;;;;5019873;28;20041;-55
2023/01/11 06:29:00;;;;;;;9.23;6.40;;;-6.10;63.10;;;;;;5026776;28;20026;-55
2023/01/11 06:31:25;;;;;;;7.53;6.13;;;-6.00;63.70;;;;;;5022215;28;20519;-55
2023/01/11 06:33:51;;;;;;;10.18;6.65;;;-6.00;62.90;;;;;;5022831;28;20040;-57
2023/01/11 06:36:16;;;;;;;8.43;6.20;;;-6.00;62.80;;;;;;5022561;28;20036;-57
2023/01/11 06:38:43;;;;;;;8.63;6.63;;;-6.00;62.80;;;;;;5020105;28;20109;-55
2023/01/11 06:41:10;;;;;;;10.15;6.72;;;-6.10;62.90;;;;;;5011622;28;20479;-56
2023/01/11 06:43:37;;;;;;;8.35;6.10;;;-6.10;63.10;;;;;;5012923;28;20072;-56
2023/01/11 06:46:03;;;;;;;8.68;6.07;;;-6.10;63.20;;;;;;5029666;28;20033;-55
2023/01/11 06:48:29;;;;;;;2.92;2.83;;;-6.10;63.40;;;;;;5008615;28;20484;-54
2023/01/11 06:50:57;;;;;;;7.50;5.93;;;-6.10;63.50;;;;;;5018573;28;20033;-50
2023/01/11 06:53:24;;;;;;;6.55;5.85;;;-6.10;63.60;;;;;;5021501;28;20021;-49
2023/01/11 06:55:51;;;;;;;10.68;6.05;;;-6.00;63.50;;;;;;5019623;28;20467;-49
2023/01/11 06:58:17;;;;;;;9.60;6.43;;;-6.00;63.30;;;;;;5020778;28;20049;-48
2023/01/11 07:00:43;;;;;;;10.80;6.65;;;-5.90;63.40;;;;;;5014676;28;20046;-52
2023/01/11 07:05:24;;;;;;;8.27;5.90;;;-6.00;62.70;;;;;;5041595;28;20534;-47
2023/01/11 07:07:50;;;;;;;8.15;6.32;;;-5.90;63.20;;;;;;5031498;28;20497;-50
2023/01/11 07:10:16;;;;;;;7.75;5.70;;;-5.90;63.10;;;;;;5033967;28;20383;-48
2023/01/11 07:12:42;;;;;;;7.68;5.65;;;-5.80;63.40;;;;;;5025061;28;20033;-56
2023/01/11 07:15:09;;;;;;;7.95;5.85;;;-5.70;63.30;;;;;;5028974;28;20420;-47
2023/01/11 07:17:35;;;;;;;9.02;5.97;;;-5.60;63.20;;;;;;5033285;28;20029;-48
2023/01/11 07:20:01;;;;;;;8.50;5.63;;;-5.50;63.00;;;;;;5022483;28;20156;-52
2023/01/11 07:22:27;;;;;;;7.85;5.38;;;-5.40;62.80;;;;;;5019297;28;20029;-52
2023/01/11 07:24:52;;;;;;;8.25;5.85;;;-5.30;62.90;;;;;;5024847;28;20547;-53
2023/01/11 07:27:19;;;;;;;8.20;5.60;;;-5.20;62.60;;;;;;5030848;28;20094;-52
2023/01/11 07:29:45;;;;;;;7.15;5.50;;;-5.10;62.30;;;;;;5028487;28;20029;-53
2023/01/11 07:32:11;;;;;;;7.18;5.82;;;-5.10;62.30;;;;;;5027455;28;20033;-50
2023/01/11 07:34:36;;;;;;;11.05;5.72;;;-5.00;62.10;;;;;;5028723;28;20114;-51
2023/01/11 07:37:03;;;;;;;7.80;6.13;;;-4.90;61.90;;;;;;5026844;28;20947;-52
2023/01/11 07:39:29;;;;;;;12.25;6.85;;;-4.90;61.80;;;;;;5033230;28;20033;-52
2023/01/11 07:44:39;;;;;;;7.70;6.00;;;-4.90;61.40;;;;;;5029163;28;20086;-51
2023/01/11 07:47:04;;;;;;;12.80;7.40;;;-4.90;61.40;;;;;;5029551;28;20037;-55
2023/01/11 07:49:30;;;;;;;7.32;6.07;;;-4.80;61.40;;;;;;5030460;28;20056;-54
2023/01/11 07:51:56;;;;;;;11.70;7.28;;;-4.80;61.40;;;;;;5033689;28;20551;-53
2023/01/11 07:54:23;;;;;;;10.20;7.10;;;-4.80;61.10;;;;;;5032586;28;20159;-53
2023/01/11 07:56:49;;;;;;;8.40;6.60;;;-4.80;61.20;;;;;;5023826;28;20021;-54
2023/01/11 07:59:15;;;;;;;11.32;7.43;;;-4.80;61.30;;;;;;5032478;28;20060;-53
2023/01/11 08:01:40;;;;;;;9.60;6.88;;;-4.80;61.30;;;;;;5021703;28;20032;-54
2023/01/11 08:04:07;;;;;;;14.25;7.75;;;-4.70;61.20;;;;;;5011767;28;20052;-56
2023/01/11 08:06:32;;;;;;;9.20;6.25;;;-4.80;61.10;;;;;;5022724;28;20059;-54
2023/01/11 08:08:58;;;;;;;8.55;6.28;;;-4.80;61.30;;;;;;5019010;28;20033;-55
2023/01/11 08:15:41;;;;;;;7.97;6.15;;;-4.70;61.00;;;;;;5008775;28;20536;-53
2023/01/11 08:18:07;;;;;;;11.13;6.65;;;-4.70;61.40;;;;;;5017154;28;20767;-55
2023/01/11 08:20:33;;;;;;;10.93;6.88;;;-4.60;61.30;;;;;;5023857;28;20102;-53
2023/01/11 08:23:07;;;;;;;12.18;6.63;;;-4.60;61.40;;;;;;5015338;28;20029;-56
2023/01/11 08:25:33;;;;;;;9.27;6.90;;;-4.50;61.40;;;;;;5010504;28;20033;-56
2023/01/11 08:28:00;;;;;;;9.48;6.38;;;-4.40;61.30;;;;;;5005233;28;20029;-52
2023/01/11 08:30:27;;;;;;;11.60;7.55;;;-4.30;61.40;;;;;;5011857;28;20119;-53
2023/01/11 08:32:52;;;;;;;12.10;6.78;;;-4.30;61.10;;;;;;5020529;28;20119;-52
2023/01/11 08:35:18;;;;;;;8.45;6.50;;;-4.20;60.80;;;;;;5015247;28;21687;-50
2023/01/11 08:37:43;;;;;;;10.40;6.63;;;-4.20;60.70;;;;;;5022329;28;20348;-55
2023/01/11 08:40:10;;;;;;;8.38;6.43;;;-4.20;60.50;;;;;;5011612;28;20029;-56
2023/01/11 08:42:36;;;;;;;10.25;6.60;;;-4.30;60.30;;;;;;5002271;28;20072;-55
2023/01/11 08:45:01;;;;;;;9.18;6.78;;;-4.30;60.40;;;;;;5005027;28;20037;-55
2023/01/11 08:47:27;;;;;;;8.48;6.35;;;-4.40;60.60;;;;;;5010246;28;21329;-54
2023/01/11 08:49:53;;;;;;;10.38;6.50;;;-4.40;60.80;;;;;;5012024;28;20119;-54
2023/01/11 08:52:19;;;;;;;10.63;6.97;;;-4.40;61.00;;;;;;5018075;28;20044;-56
2023/01/11 08:54:45;;;;;;;8.38;6.47;;;-4.40;61.10;;;;;;5014390;28;20831;-53
2023/01/11 08:57:11;;;;;;;7.82;6.30;;;-4.30;61.20;;;;;;5002126;28;20033;-56
2023/01/11 08:59:37;;;;;;;9.10;6.75;;;-4.30;61.10;;;;;;5001895;28;20152;-54
2023/01/11 09:02:04;;;;;;;8.05;6.18;;;-4.20;61.00;;;;;;5013846;28;20032;-55
2023/01/11 09:04:30;;;;;;;9.93;6.43;;;-4.20;61.00;;;;;;5021103;28;20029;-54
2023/01/11 09:06:56;;;;;;;9.13;6.90;;;-4.10;61.00;;;;;;5015922;28;20046;-53
2023/01/11 09:09:22;;;;;;;8.90;6.00;;;-4.20;60.90;;;;;;5013945;28;20403;-55
2023/01/11 09:11:53;;;;;;;11.00;7.13;;;-4.20;61.10;;;;;;5009167;28;20033;-56
2023/01/11 09:14:24;;;;;;;10.60;6.40;;;-4.20;61.00;;;;;;5009299;28;20079;-52
2023/01/11 09:16:51;;;;;;;9.02;6.80;;;-4.30;61.00;;;;;;5011969;28;20033;-55
2023/01/11 09:19:17;;;;;;;9.18;6.32;;;-4.30;61.20;;;;;;5011513;28;20035;-57
2023/01/11 09:21:44;;;;;;;9.02;6.47;;;-4.30;61.20;;;;;;5014250;28;20025;-52
2023/01/11 09:24:10;;;;;;;7.72;5.93;;;-4.30;61.20;;;;;;5005040;28;20033;-57
2023/01/11 09:26:37;;;;;;;6.82;5.55;;;-4.30;61.40;;;;;;5001319;28;20037;-53
2023/01/11 09:29:03;;;;;;;8.60;6.40;;;-4.20;61.40;;;;;;5005075;28;20041;-52
2023/01/11 09:31:29;;;;;;;8.57;6.43;;;-4.10;61.40;;;;;;5001235;28;21701;-59
2023/01/11 09:33:55;;;;;;;8.25;5.90;;;-4.00;60.90;;;;;;5001194;28;20040;-55
2023/01/11 09:36:22;;;;;;;9.73;6.40;;;-4.10;60.70;;;;;;4999845;28;20083;-54
2023/01/11 09:38:49;;;;;;;10.65;6.55;;;-4.00;60.80;;;;;;5015178;28;20154;-55
2023/01/11 09:41:53;;;;;;;8.60;5.90;;;-4.00;60.60;;;;;;5003374;28;20032;-56
2023/01/11 09:44:24;;;;;;;9.27;6.47;;;-4.00;60.50;;;;;;4988344;28;20175;-56
2023/01/11 09:46:54;;;;;;;11.18;6.80;;;-3.90;60.50;;;;;;5002199;28;20087;-58
2023/01/11 09:49:28;;;;;;;9.40;6.60;;;-3.90;60.30;;;;;;4995287;28;20128;-54
2023/01/11 09:52:09;;;;;;;9.45;6.35;;;-4.00;60.10;;;;;;4996882;28;20511;-54
2023/01/11 09:54:35;;;;;;;11.95;6.97;;;-4.00;60.30;;;;;;5003636;28;20041;-51
2023/01/11 09:57:01;;;;;;;8.65;5.78;;;-4.10;60.40;;;;;;5003420;28;20283;-55
2023/01/11 09:59:36;;;;;;;3.53;3.22;;;-4.10;60.50;;;;;;4999730;28;20649;-53
2023/01/11 10:02:23;;;;;;;8.93;5.93;;;-4.20;60.80;;;;;;4992099;28;20053;-56
2023/01/11 10:05:08;;;;;;;3.13;2.90;;;-4.20;60.80;;;;;;4981773;28;20703;-56
2023/01/11 10:07:36;;;;;;;9.20;6.30;;;-4.30;61.00;;;;;;4997486;28;20736;-54
2023/01/11 10:10:23;;;;;;;7.75;5.72;;;-4.30;61.30;;;;;;4998795;28;20038;-55
2023/01/11 10:13:12;;;;;;;10.23;6.32;;;-4.30;61.70;;;;;;4996014;28;20041;-50
2023/01/11 10:16:07;;;;;;;11.55;7.10;;;-4.20;61.90;;;;;;4997543;28;20160;-55
2023/01/11 10:19:04;;;;;;;5.32;3.97;;;-4.20;61.80;;;;;;5000223;28;20156;-57
2023/01/11 10:21:46;;;;;;;9.10;6.57;;;-4.20;61.90;;;;;;4994200;28;20076;-56
2023/01/11 10:24:22;;;;;;;8.82;6.15;;;-4.10;61.70;;;;;;4990143;28;20722;-58
2023/01/11 10:26:51;;;;;;;9.90;6.85;;;-4.00;61.60;;;;;;4995582;28;20038;-58
2023/01/11 10:29:38;;;;;;;9.52;7.38;;;-3.90;62.00;;;;;;4993298;28;20940;-57
2023/01/11 10:33:05;;;;;;;10.02;6.80;;;-3.90;61.40;;;;;;4993342;28;20029;-57
2023/01/11 10:36:12;;;;;;;10.52;6.97;;;-3.90;61.50;;;;;;4998821;28;20136;-57
2023/01/11 10:41:37;;;;;;;8.77;5.88;;;-4.10;62.20;;;;;;4983793;28;20136;-55
2023/01/11 10:44:08;;;;;;;8.95;7.05;;;-4.00;62.20;;;;;;4988331;28;20045;-56
2023/01/11 10:46:43;;;;;;;9.63;6.47;;;-4.00;62.00;;;;;;4997919;28;20033;-56
2023/01/11 10:49:44;;;;;;;9.63;6.82;;;-4.00;62.20;;;;;;5004254;28;20026;-56
2023/01/11 10:52:34;;;;;;;10.55;6.93;;;-4.10;62.80;;;;;;5002336;28;20048;-57
2023/01/11 10:55:11;;;;;;;9.68;6.53;;;-4.10;63.20;;;;;;5005126;28;20057;-57
2023/01/11 10:57:59;;;;;;;9.35;6.22;;;-4.10;63.40;;;;;;4996625;28;20115;-57
2023/01/11 11:02:50;;;;;;;9.50;6.07;;;-4.10;64.20;;;;;;5070268;27;20514;-57
2023/01/11 11:05:38;;;;;;;8.32;6.15;;;-4.10;64.40;;;;;;5059791;28;20662;-57
2023/01/11 11:08:12;;;;;;;13.35;6.78;;;-4.10;64.60;;;;;;5058072;28;20075;-58
2023/01/11 11:10:37;;;;;;;7.93;6.03;;;-4.10;64.60;;;;;;5048793;28;20093;-57
2023/01/11 11:13:19;;;;;;;7.38;5.90;;;-4.10;64.80;;;;;;5044991;28;20032;-57
2023/01/11 11:15:53;;;;;;;7.97;6.22;;;-4.10;64.90;;;;;;5045136;28;20059;-56
2023/01/11 11:18:18;;;;;;;10.48;6.75;;;-4.10;64.60;;;;;;5044655;28;20036;-56
2023/01/11 11:20:45;;;;;;;8.82;6.25;;;-4.00;64.20;;;;;;5053928;28;20071;-58
2023/01/11 11:23:17;;;;;;;8.50;6.65;;;-4.00;64.10;;;;;;5053813;28;20036;-58
2023/01/11 11:25:49;;;;;;;9.23;5.97;;;-4.00;64.60;;;;;;5055836;28;20102;-60
2023/01/11 11:28:23;;;;;;;9.70;7.00;;;-4.00;64.90;;;;;;5060386;28;20813;-57
2023/01/11 11:30:54;;;;;;;9.38;6.78;;;-4.00;65.00;;;;;;5050000;28;20515;-58
2023/01/11 11:33:36;;;;;;;9.20;6.23;;;-4.00;65.20;;;;;;5049086;28;20036;-55
2023/01/11 11:36:07;;;;;;;10.57;6.45;;;-4.00;65.00;;;;;;5050540;28;20032;-57
2023/01/11 11:39:10;;;;;;;10.90;7.03;;;-4.00;64.90;;;;;;5053903;28;20024;-58
2023/01/11 11:41:47;;;;;;;9.48;6.65;;;-4.00;64.90;;;;;;5056267;28;20056;-57
2023/01/11 11:44:27;;;;;;;10.60;6.63;;;-4.00;64.70;;;;;;5051771;28;20032;-56
2023/01/11 11:47:16;;;;;;;10.25;7.00;;;-4.00;65.00;;;;;;5056124;28;20059;-57
2023/01/11 11:49:42;;;;;;;7.57;3.78;;;-4.00;65.00;;;;;;5052619;28;20049;-55
2023/01/11 11:52:16;;;;;;;8.52;6.38;;;-4.10;65.20;;;;;;5060188;28;20615;-54
2023/01/11 11:54:50;;;;;;;14.60;7.28;;;-4.10;65.20;;;;;;5055702;28;20028;-56
2023/01/11 12:00:33;;;;;;;9.90;6.45;;;-4.10;65.20;;;;;;4992634;28;20416;-53
2023/01/11 12:03:11;;;;;;;10.52;6.40;;;-4.00;65.70;;;;;;4976680;28;20033;-56
2023/01/11 12:05:46;;;;;;;7.63;5.75;;;-4.00;65.70;;;;;;5006078;28;20030;-54
2023/01/11 12:08:13;;;;;;;8.75;6.10;;;-4.00;65.60;;;;;;5007454;28;20361;-53
2023/01/11 12:10:48;;;;;;;8.80;6.50;;;-3.90;65.80;;;;;;5009969;28;20029;-56
2023/01/11 12:13:35;;;;;;;8.70;6.10;;;-3.80;65.80;;;;;;4992292;28;20042;-58
2023/01/11 12:16:06;;;;;;;7.13;5.75;;;-3.80;65.70;;;;;;4985328;28;21295;-57
2023/01/11 12:18:42;;;;;;;;;;;-3.80;65.60;;;;;;4997791;28;20046;-54
2023/01/11 12:21:22;;;;;;;8.23;6.03;;;-3.80;65.50;;;;;;4996289;28;19924;-55
2023/01/11 12:24:07;;;;;;;9.43;5.88;;;-3.80;65.40;;;;;;5004272;28;20048;-59
2023/01/11 12:27:05;;;;;;;10.95;6.55;;;-3.90;65.30;;;;;;4992950;28;20140;-56
2023/01/11 12:29:43;;;;;;;8.80;6.45;;;-3.90;65.40;;;;;;5003141;28;20041;-57
2023/01/11 12:32:46;;;;;;;8.80;6.78;;;-3.90;65.80;;;;;;4993143;28;20025;-58
2023/01/11 12:35:47;;;;;;;8.25;6.07;;;-3.90;66.20;;;;;;4996686;28;20144;-58
2023/01/11 12:38:38;;;;;;;8.23;6.18;;;-3.90;66.60;;;;;;4982587;28;20161;-57
2023/01/11 12:41:42;;;;;;;9.57;6.10;;;-3.80;66.80;;;;;;4994839;28;20083;-56
2023/01/11 12:44:19;;;;;;;10.07;6.35;;;-3.80;66.90;;;;;;4999775;28;20135;-59
2023/01/11 12:46:54;;;;;;;14.48;7.50;;;-3.80;66.70;;;;;;4996577;28;20034;-59
2023/01/11 12:49:36;;;;;;;8.93;6.57;;;-3.70;67.00;;;;;;4995835;28;20596;-59
2023/01/11 12:52:23;;;;;;;9.73;6.65;;;-3.70;67.20;;;;;;4956074;28;20038;-59
2023/01/11 12:55:13;;;;;;;11.38;7.00;;;-3.80;67.20;;;;;;4980494;28;20054;-58
2023/01/11 13:01:07;;;;;;;10.70;7.22;;;-3.80;67.50;;;;;;4994876;28;20050;-57
2023/01/11 13:05:10;;;;;;;12.23;6.85;;;-3.80;67.10;;;;;;5063200;27;20425;-57
2023/01/11 13:07:50;;;;;;;9.15;7.10;;;-3.80;67.50;;;;;;5066413;28;22145;-53
2023/01/11 13:11:06;;;;;;;12.57;7.93;;;-3.70;67.70;;;;;;5072269;28;20061;-55
2023/01/11 13:14:01;;;;;;;11.80;7.63;;;-3.70;67.80;;;;;;4991719;28;20511;-58
2023/01/11 13:16:37;;;;;;;13.02;8.27;;;-3.70;68.00;;;;;;4991552;28;20041;-57
2023/01/11 13:19:10;;;;;;;8.98;7.28;;;-3.80;67.80;;;;;;5048068;28;20965;-58
2023/01/11 13:21:52;;;;;;;9.57;6.90;;;-3.80;67.90;;;;;;5064811;28;20035;-58
2023/01/11 13:24:25;;;;;;;8.32;6.72;;;-3.70;68.00;;;;;;5074600;28;20048;-57
2023/01/11 13:27:12;;;;;;;10.77;7.60;;;-3.70;68.00;;;;;;5060609;28;20073;-58
2023/01/11 13:29:51;;;;;;;10.55;7.45;;;-3.70;68.10;;;;;;5062109;28;20508;-58
2023/01/11 13:32:37;;;;;;;11.02;7.45;;;-3.70;68.10;;;;;;5080748;28;20081;-54
2023/01/11 13:35:16;;;;;;;11.27;7.60;;;-3.70;68.20;;;;;;5076478;28;20028;-59
2023/01/11 13:37:59;;;;;;;12.82;7.90;;;-3.70;68.10;;;;;;5078554;28;20107;-57
2023/01/11 13:40:46;;;;;;;11.30;7.20;;;-3.60;67.90;;;;;;5078008;28;21389;-60
2023/01/11 13:43:18;;;;;;;9.57;7.03;;;-3.60;67.90;;;;;;5064949;28;20064;-54
2023/01/11 13:45:51;;;;;;;10.93;7.40;;;-3.60;67.90;;;;;;5076915;28;20031;-56
2023/01/11 13:48:41;;;;;;;10.43;7.00;;;-3.60;67.90;;;;;;5071980;28;20043;-54
2023/01/11 13:51:27;;;;;;;10.05;6.97;;;-3.60;68.00;;;;;;5075420;28;20139;-56
2023/01/11 13:54:23;;;;;;;12.27;7.38;;;-3.60;68.10;;;;;;5068424;28;20031;-56
2023/01/11 13:56:59;;;;;;;10.73;7.30;;;-3.60;67.90;;;;;;5062436;28;20918;-57